PWSweather.com
Personal Weather Stations
Station Observations
KIDJEROME
Sse Jerome Butte , Jerome, ID 83338

Sse Jerome Butte Jerome, ID 83338

Lat: 42.6981891, Lon: -114.4041362

Elevation: 3960

Station Type: Davis Vantage Pro 2

High Low Average
Temperature 50.7°F10.4°F 36.3°F2.4°F 42.4°F5.8°F
Dew Point 41.6°F5.3°F 33.7°F0.9°F 36.8°F2.7°F
Winds 15.0 mph WSW24.1 mph WSW 2.0 mph 3.2 mph 8.3 mph 13.4 mph
Wind Gusts 20.0 mph32.2 mph 3.0 mph4.8 mph 11.7 mph18.8 mph
Humidity 100% 53% 82%
Pressure 29.96 in1014.60 in 29.75 in1007.50 in -
Precipitation 0.00 in0.00 in - -
Hour Temp Dew Point Humidity Winds Wind Gusts Pressure Precip Precip Rate Daily Precip Total
12:00 AM 42.9°F6.1°C 41.6°F5.3°C 95% 4.0 mph SW6.4 kmh SW 6.0 mph9.7 kmh 29.76 in1007.8 mb 0.00 in0.0 mm 0.00 in0.0 mm 0.00 in0.0 mm
12:15 AM 42.8°F6.0°C 41.2°F5.1°C 94% 5.0 mph WSW8.0 kmh WSW 8.0 mph12.9 kmh 29.75 in1007.5 mb 0.00 in0.0 mm 0.00 in0.0 mm 0.00 in0.0 mm
12:30 AM 42.5°F5.8°C 40.3°F4.6°C 92% 5.0 mph WSW8.0 kmh WSW 8.0 mph12.9 kmh 29.75 in1007.5 mb 0.00 in0.0 mm 0.00 in0.0 mm 0.00 in0.0 mm
12:45 AM 42.3°F5.7°C 39.9°F4.4°C 91% 6.0 mph WSW9.7 kmh WSW 8.0 mph12.9 kmh 29.76 in1007.8 mb 0.00 in0.0 mm 0.00 in0.0 mm 0.00 in0.0 mm
01:00 AM 42.2°F5.7°C 39.8°F4.3°C 91% 5.0 mph WSW8.0 kmh WSW 8.0 mph12.9 kmh 29.76 in1007.8 mb 0.00 in0.0 mm 0.00 in0.0 mm 0.00 in0.0 mm
01:15 AM 41.8°F5.4°C 39.6°F4.2°C 92% 4.0 mph WSW6.4 kmh WSW 6.0 mph9.7 kmh 29.76 in1007.8 mb 0.00 in0.0 mm 0.00 in0.0 mm 0.00 in0.0 mm
01:30 AM 41.1°F5.1°C 39.0°F3.9°C 92% 3.0 mph WSW4.8 kmh WSW 4.0 mph6.4 kmh 29.76 in1007.8 mb 0.00 in0.0 mm 0.00 in0.0 mm 0.00 in0.0 mm
01:45 AM 40.5°F4.7°C 38.9°F3.8°C 94% 3.0 mph WSW4.8 kmh WSW 4.0 mph6.4 kmh 29.76 in1007.8 mb 0.00 in0.0 mm 0.00 in0.0 mm 0.00 in0.0 mm
02:00 AM 40.2°F4.6°C 38.9°F3.8°C 95% 3.0 mph WSW4.8 kmh WSW 4.0 mph6.4 kmh 29.77 in1008.1 mb 0.00 in0.0 mm 0.00 in0.0 mm 0.00 in0.0 mm
02:15 AM 40.3°F4.6°C 39.0°F3.9°C 95% 4.0 mph WSW6.4 kmh WSW 5.0 mph8.0 kmh 29.77 in1008.1 mb 0.00 in0.0 mm 0.00 in0.0 mm 0.00 in0.0 mm
02:30 AM 40.8°F4.9°C 39.2°F4.0°C 94% 5.0 mph W8.0 kmh W 8.0 mph12.9 kmh 29.77 in1008.1 mb 0.00 in0.0 mm 0.00 in0.0 mm 0.00 in0.0 mm
02:45 AM 40.9°F4.9°C 38.5°F3.6°C 91% 6.0 mph W9.7 kmh W 11.0 mph17.7 kmh 29.77 in1008.1 mb 0.00 in0.0 mm 0.00 in0.0 mm 0.00 in0.0 mm
03:00 AM 40.9°F4.9°C 38.2°F3.4°C 90% 8.0 mph W12.9 kmh W 11.0 mph17.7 kmh 29.77 in1008.1 mb 0.00 in0.0 mm 0.00 in0.0 mm 0.00 in0.0 mm
03:15 AM 40.5°F4.7°C 37.5°F3.1°C 89% 8.0 mph W12.9 kmh W 10.0 mph16.1 kmh 29.76 in1007.8 mb 0.00 in0.0 mm 0.00 in0.0 mm 0.00 in0.0 mm
03:30 AM 40.2°F4.6°C 37.5°F3.1°C 90% 6.0 mph W9.7 kmh W 9.0 mph14.5 kmh 29.76 in1007.8 mb 0.00 in0.0 mm 0.00 in0.0 mm 0.00 in0.0 mm
03:45 AM 39.9°F4.4°C 37.2°F2.9°C 90% 7.0 mph WSW11.3 kmh WSW 8.0 mph12.9 kmh 29.76 in1007.8 mb 0.00 in0.0 mm 0.00 in0.0 mm 0.00 in0.0 mm
04:00 AM 39.6°F4.2°C 37.2°F2.9°C 91% 5.0 mph W8.0 kmh W 7.0 mph11.3 kmh 29.77 in1008.1 mb 0.00 in0.0 mm 0.00 in0.0 mm 0.00 in0.0 mm
04:15 AM 39.3°F4.1°C 37.2°F2.9°C 92% 4.0 mph WSW6.4 kmh WSW 6.0 mph9.7 kmh 29.77 in1008.1 mb 0.00 in0.0 mm 0.00 in0.0 mm 0.00 in0.0 mm
04:30 AM 39.2°F4.0°C 37.3°F2.9°C 93% 4.0 mph WSW6.4 kmh WSW 7.0 mph11.3 kmh 29.77 in1008.1 mb 0.00 in0.0 mm 0.00 in0.0 mm 0.00 in0.0 mm
04:45 AM 39.2°F4.0°C 37.9°F3.3°C 95% 5.0 mph WSW8.0 kmh WSW 7.0 mph11.3 kmh 29.78 in1008.5 mb 0.00 in0.0 mm 0.00 in0.0 mm 0.00 in0.0 mm
05:00 AM 39.2°F4.0°C 37.9°F3.3°C 95% 6.0 mph WSW9.7 kmh WSW 10.0 mph16.1 kmh 29.79 in1008.8 mb 0.00 in0.0 mm 0.00 in0.0 mm 0.00 in0.0 mm
05:15 AM 38.9°F3.8°C 37.3°F2.9°C 94% 8.0 mph WSW12.9 kmh WSW 11.0 mph17.7 kmh 29.79 in1008.8 mb 0.00 in0.0 mm 0.00 in0.0 mm 0.00 in0.0 mm
05:30 AM 38.6°F3.7°C 36.2°F2.3°C 91% 9.0 mph W14.5 kmh W 15.0 mph24.1 kmh 29.79 in1008.8 mb 0.00 in0.0 mm 0.00 in0.0 mm 0.00 in0.0 mm
05:45 AM 38.5°F3.6°C 35.3°F1.8°C 88% 11.0 mph W17.7 kmh W 14.0 mph22.5 kmh 29.80 in1009.1 mb 0.00 in0.0 mm 0.00 in0.0 mm 0.00 in0.0 mm
06:00 AM 38.0°F3.3°C 35.0°F1.7°C 89% 10.0 mph W16.1 kmh W 12.0 mph19.3 kmh 29.80 in1009.1 mb 0.00 in0.0 mm 0.00 in0.0 mm 0.00 in0.0 mm
06:15 AM 37.6°F3.1°C 34.9°F1.6°C 90% 9.0 mph W14.5 kmh W 11.0 mph17.7 kmh 29.81 in1009.5 mb 0.00 in0.0 mm 0.00 in0.0 mm 0.00 in0.0 mm
06:30 AM 37.6°F3.1°C 34.9°F1.6°C 90% 9.0 mph W14.5 kmh W 12.0 mph19.3 kmh 29.81 in1009.5 mb 0.00 in0.0 mm 0.00 in0.0 mm 0.00 in0.0 mm
06:45 AM 37.2°F2.9°C 34.8°F1.6°C 91% 9.0 mph W14.5 kmh W 11.0 mph17.7 kmh 29.81 in1009.5 mb 0.00 in0.0 mm 0.00 in0.0 mm 0.00 in0.0 mm
07:00 AM 36.9°F2.7°C 35.1°F1.7°C 93% 8.0 mph WSW12.9 kmh WSW 12.0 mph19.3 kmh 29.82 in1009.8 mb 0.00 in0.0 mm 0.00 in0.0 mm 0.00 in0.0 mm
07:15 AM 36.6°F2.6°C 35.3°F1.8°C 95% 9.0 mph WSW14.5 kmh WSW 11.0 mph17.7 kmh 29.82 in1009.8 mb 0.00 in0.0 mm 0.00 in0.0 mm 0.00 in0.0 mm
07:30 AM 36.6°F2.6°C 36.1°F2.3°C 98% 9.0 mph WSW14.5 kmh WSW 11.0 mph17.7 kmh 29.82 in1009.8 mb 0.00 in0.0 mm 0.00 in0.0 mm 0.00 in0.0 mm
07:45 AM 36.5°F2.5°C 36.5°F2.5°C 100% 9.0 mph WSW14.5 kmh WSW 13.0 mph20.9 kmh 29.83 in1010.2 mb 0.00 in0.0 mm 0.00 in0.0 mm 0.00 in0.0 mm
08:00 AM 36.8°F2.7°C 36.8°F2.7°C 100% 10.0 mph WSW16.1 kmh WSW 12.0 mph19.3 kmh 29.84 in1010.5 mb 0.00 in0.0 mm 0.00 in0.0 mm 0.00 in0.0 mm
08:15 AM 37.2°F2.9°C 37.2°F2.9°C 100% 10.0 mph WSW16.1 kmh WSW 14.0 mph22.5 kmh 29.84 in1010.5 mb 0.00 in0.0 mm 0.00 in0.0 mm 0.00 in0.0 mm
08:30 AM 37.8°F3.2°C 37.8°F3.2°C 100% 11.0 mph WSW17.7 kmh WSW 15.0 mph24.1 kmh 29.85 in1010.8 mb 0.00 in0.0 mm 0.00 in0.0 mm 0.00 in0.0 mm
08:45 AM 38.2°F3.4°C 38.2°F3.4°C 100% 11.0 mph WSW17.7 kmh WSW 15.0 mph24.1 kmh 29.85 in1010.8 mb 0.00 in0.0 mm 0.00 in0.0 mm 0.00 in0.0 mm
09:00 AM 38.9°F3.8°C 38.6°F3.7°C 99% 11.0 mph WSW17.7 kmh WSW 16.0 mph25.7 kmh 29.86 in1011.2 mb 0.00 in0.0 mm 0.00 in0.0 mm 0.00 in0.0 mm
09:15 AM 39.6°F4.2°C 38.6°F3.7°C 96% 12.0 mph WSW19.3 kmh WSW 17.0 mph27.4 kmh 29.86 in1011.2 mb 0.00 in0.0 mm 0.00 in0.0 mm 0.00 in0.0 mm
09:30 AM 40.3°F4.6°C 38.4°F3.6°C 93% 13.0 mph WSW20.9 kmh WSW 17.0 mph27.4 kmh 29.86 in1011.2 mb 0.00 in0.0 mm 0.00 in0.0 mm 0.00 in0.0 mm
09:45 AM 40.9°F4.9°C 38.5°F3.6°C 91% 15.0 mph WSW24.1 kmh WSW 19.0 mph30.6 kmh 29.86 in1011.2 mb 0.00 in0.0 mm 0.00 in0.0 mm 0.00 in0.0 mm
10:00 AM 40.6°F4.8°C 37.9°F3.3°C 90% 14.0 mph WSW22.5 kmh WSW 19.0 mph30.6 kmh 29.87 in1011.5 mb 0.00 in0.0 mm 0.00 in0.0 mm 0.00 in0.0 mm
10:15 AM 41.3°F5.2°C 38.3°F3.5°C 89% 14.0 mph WSW22.5 kmh WSW 19.0 mph30.6 kmh 29.88 in1011.9 mb 0.00 in0.0 mm 0.00 in0.0 mm 0.00 in0.0 mm
10:30 AM 42.1°F5.6°C 38.8°F3.8°C 88% 14.0 mph W22.5 kmh W 18.0 mph29.0 kmh 29.88 in1011.9 mb 0.00 in0.0 mm 0.00 in0.0 mm 0.00 in0.0 mm
10:45 AM 42.5°F5.8°C 38.6°F3.7°C 86% 14.0 mph WSW22.5 kmh WSW 20.0 mph32.2 kmh 29.89 in1012.2 mb 0.00 in0.0 mm 0.00 in0.0 mm 0.00 in0.0 mm
11:00 AM 42.9°F6.1°C 38.7°F3.7°C 85% 14.0 mph W22.5 kmh W 19.0 mph30.6 kmh 29.89 in1012.2 mb 0.00 in0.0 mm 0.00 in0.0 mm 0.00 in0.0 mm
11:15 AM 43.2°F6.2°C 38.4°F3.6°C 83% 15.0 mph W24.1 kmh W 20.0 mph32.2 kmh 29.89 in1012.2 mb 0.00 in0.0 mm 0.00 in0.0 mm 0.00 in0.0 mm
11:30 AM 43.2°F6.2°C 37.8°F3.2°C 81% 15.0 mph W24.1 kmh W 20.0 mph32.2 kmh 29.89 in1012.2 mb 0.00 in0.0 mm 0.00 in0.0 mm 0.00 in0.0 mm
11:45 AM 43.5°F6.4°C 38.4°F3.6°C 82% 14.0 mph W22.5 kmh W 17.0 mph27.4 kmh 29.89 in1012.2 mb 0.00 in0.0 mm 0.00 in0.0 mm 0.00 in0.0 mm
12:00 PM 43.8°F6.6°C 37.7°F3.2°C 79% 14.0 mph W22.5 kmh W 19.0 mph30.6 kmh 29.89 in1012.2 mb 0.00 in0.0 mm 0.00 in0.0 mm 0.00 in0.0 mm
12:15 PM 44.2°F6.8°C 37.8°F3.2°C 78% 12.0 mph W19.3 kmh W 18.0 mph29.0 kmh 29.89 in1012.2 mb 0.00 in0.0 mm 0.00 in0.0 mm 0.00 in0.0 mm
12:30 PM 44.6°F7.0°C 37.8°F3.2°C 77% 12.0 mph W19.3 kmh W 17.0 mph27.4 kmh 29.88 in1011.9 mb 0.00 in0.0 mm 0.00 in0.0 mm 0.00 in0.0 mm
12:45 PM 44.9°F7.2°C 37.8°F3.2°C 76% 12.0 mph W19.3 kmh W 16.0 mph25.7 kmh 29.89 in1012.2 mb 0.00 in0.0 mm 0.00 in0.0 mm 0.00 in0.0 mm
01:00 PM 45.4°F7.4°C 37.2°F2.9°C 73% 12.0 mph W19.3 kmh W 17.0 mph27.4 kmh 29.89 in1012.2 mb 0.00 in0.0 mm 0.00 in0.0 mm 0.00 in0.0 mm
01:15 PM 45.4°F7.4°C 37.2°F2.9°C 73% 12.0 mph W19.3 kmh W 16.0 mph25.7 kmh 29.89 in1012.2 mb 0.00 in0.0 mm 0.00 in0.0 mm 0.00 in0.0 mm
01:30 PM 45.1°F7.3°C 36.6°F2.6°C 72% 12.0 mph W19.3 kmh W 16.0 mph25.7 kmh 29.89 in1012.2 mb 0.00 in0.0 mm 0.00 in0.0 mm 0.00 in0.0 mm
01:45 PM 45.5°F7.5°C 36.6°F2.6°C 71% 11.0 mph WNW17.7 kmh WNW 14.0 mph22.5 kmh 29.89 in1012.2 mb 0.00 in0.0 mm 0.00 in0.0 mm 0.00 in0.0 mm
02:00 PM 46.5°F8.1°C 37.6°F3.1°C 71% 11.0 mph W17.7 kmh W 15.0 mph24.1 kmh 29.89 in1012.2 mb 0.00 in0.0 mm 0.00 in0.0 mm 0.00 in0.0 mm
02:15 PM 47.0°F8.3°C 36.6°F2.6°C 67% 11.0 mph WNW17.7 kmh WNW 17.0 mph27.4 kmh 29.89 in1012.2 mb 0.00 in0.0 mm 0.00 in0.0 mm 0.00 in0.0 mm
02:30 PM 46.8°F8.2°C 37.5°F3.1°C 70% 10.0 mph WNW16.1 kmh WNW 15.0 mph24.1 kmh 29.89 in1012.2 mb 0.00 in0.0 mm 0.00 in0.0 mm 0.00 in0.0 mm
02:45 PM 47.3°F8.5°C 36.1°F2.3°C 65% 11.0 mph WNW17.7 kmh WNW 17.0 mph27.4 kmh 29.90 in1012.5 mb 0.00 in0.0 mm 0.00 in0.0 mm 0.00 in0.0 mm
03:00 PM 48.6°F9.2°C 36.6°F2.6°C 63% 10.0 mph WNW16.1 kmh WNW 14.0 mph22.5 kmh 29.89 in1012.2 mb 0.00 in0.0 mm 0.00 in0.0 mm 0.00 in0.0 mm
03:15 PM 49.2°F9.6°C 36.3°F2.4°C 61% 9.0 mph WNW14.5 kmh WNW 14.0 mph22.5 kmh 29.90 in1012.5 mb 0.00 in0.0 mm 0.00 in0.0 mm 0.00 in0.0 mm
03:30 PM 49.2°F9.6°C 35.5°F1.9°C 59% 8.0 mph NW12.9 kmh NW 14.0 mph22.5 kmh 29.89 in1012.2 mb 0.00 in0.0 mm 0.00 in0.0 mm 0.00 in0.0 mm
03:45 PM 49.2°F9.6°C 36.7°F2.6°C 62% 9.0 mph WNW14.5 kmh WNW 14.0 mph22.5 kmh 29.90 in1012.5 mb 0.00 in0.0 mm 0.00 in0.0 mm 0.00 in0.0 mm
04:00 PM 49.4°F9.7°C 36.1°F2.3°C 60% 9.0 mph NW14.5 kmh NW 14.0 mph22.5 kmh 29.89 in1012.2 mb 0.00 in0.0 mm 0.00 in0.0 mm 0.00 in0.0 mm
04:15 PM 49.8°F9.9°C 35.6°F2.0°C 58% 9.0 mph W14.5 kmh W 15.0 mph24.1 kmh 29.89 in1012.2 mb 0.00 in0.0 mm 0.00 in0.0 mm 0.00 in0.0 mm
04:30 PM 49.5°F9.7°C 35.8°F2.1°C 59% 11.0 mph WNW17.7 kmh WNW 15.0 mph24.1 kmh 29.89 in1012.2 mb 0.00 in0.0 mm 0.00 in0.0 mm 0.00 in0.0 mm
04:45 PM 50.5°F10.3°C 34.5°F1.4°C 54% 11.0 mph WNW17.7 kmh WNW 16.0 mph25.7 kmh 29.89 in1012.2 mb 0.00 in0.0 mm 0.00 in0.0 mm 0.00 in0.0 mm
05:00 PM 50.7°F10.4°C 34.6°F1.4°C 54% 12.0 mph WNW19.3 kmh WNW 18.0 mph29.0 kmh 29.89 in1012.2 mb 0.00 in0.0 mm 0.00 in0.0 mm 0.00 in0.0 mm
05:15 PM 50.5°F10.3°C 34.0°F1.1°C 53% 11.0 mph W17.7 kmh W 18.0 mph29.0 kmh 29.89 in1012.2 mb 0.00 in0.0 mm 0.00 in0.0 mm 0.00 in0.0 mm
05:30 PM 50.2°F10.1°C 33.7°F0.9°C 53% 12.0 mph WNW19.3 kmh WNW 18.0 mph29.0 kmh 29.89 in1012.2 mb 0.00 in0.0 mm 0.00 in0.0 mm 0.00 in0.0 mm
05:45 PM 49.9°F9.9°C 34.4°F1.3°C 55% 11.0 mph WNW17.7 kmh WNW 17.0 mph27.4 kmh 29.90 in1012.5 mb 0.00 in0.0 mm 0.00 in0.0 mm 0.00 in0.0 mm
06:00 PM 49.5°F9.7°C 34.9°F1.6°C 57% 11.0 mph WNW17.7 kmh WNW 16.0 mph25.7 kmh 29.90 in1012.5 mb 0.00 in0.0 mm 0.00 in0.0 mm 0.00 in0.0 mm
06:15 PM 49.6°F9.8°C 35.8°F2.1°C 59% 11.0 mph W17.7 kmh W 17.0 mph27.4 kmh 29.91 in1012.9 mb 0.00 in0.0 mm 0.00 in0.0 mm 0.00 in0.0 mm
06:30 PM 48.9°F9.4°C 35.6°F2.0°C 60% 11.0 mph W17.7 kmh W 14.0 mph22.5 kmh 29.91 in1012.9 mb 0.00 in0.0 mm 0.00 in0.0 mm 0.00 in0.0 mm
06:45 PM 48.2°F9.0°C 35.8°F2.1°C 62% 8.0 mph W12.9 kmh W 10.0 mph16.1 kmh 29.91 in1012.9 mb 0.00 in0.0 mm 0.00 in0.0 mm 0.00 in0.0 mm
07:00 PM 47.6°F8.7°C 35.6°F2.0°C 63% 9.0 mph W14.5 kmh W 14.0 mph22.5 kmh 29.91 in1012.9 mb 0.00 in0.0 mm 0.00 in0.0 mm 0.00 in0.0 mm
07:15 PM 46.5°F8.1°C 36.5°F2.5°C 68% 8.0 mph W12.9 kmh W 10.0 mph16.1 kmh 29.91 in1012.9 mb 0.00 in0.0 mm 0.00 in0.0 mm 0.00 in0.0 mm
07:30 PM 45.1°F7.3°C 36.6°F2.6°C 72% 5.0 mph WNW8.0 kmh WNW 7.0 mph11.3 kmh 29.91 in1012.9 mb 0.00 in0.0 mm 0.00 in0.0 mm 0.00 in0.0 mm
07:45 PM 43.5°F6.4°C 36.4°F2.4°C 76% 5.0 mph WNW8.0 kmh WNW 6.0 mph9.7 kmh 29.91 in1012.9 mb 0.00 in0.0 mm 0.00 in0.0 mm 0.00 in0.0 mm
08:00 PM 42.3°F5.7°C 36.3°F2.4°C 79% 4.0 mph WNW6.4 kmh WNW 6.0 mph9.7 kmh 29.91 in1012.9 mb 0.00 in0.0 mm 0.00 in0.0 mm 0.00 in0.0 mm
08:15 PM 41.9°F5.5°C 35.5°F1.9°C 78% 4.0 mph NW6.4 kmh NW 5.0 mph8.0 kmh 29.92 in1013.2 mb 0.00 in0.0 mm 0.00 in0.0 mm 0.00 in0.0 mm
08:30 PM 41.6°F5.3°C 35.2°F1.8°C 78% 4.0 mph NW6.4 kmh NW 7.0 mph11.3 kmh 29.92 in1013.2 mb 0.00 in0.0 mm 0.00 in0.0 mm 0.00 in0.0 mm
08:45 PM 40.6°F4.8°C 34.9°F1.6°C 80% 3.0 mph WNW4.8 kmh WNW 4.0 mph6.4 kmh 29.93 in1013.5 mb 0.00 in0.0 mm 0.00 in0.0 mm 0.00 in0.0 mm
09:15 PM 39.2°F4.0°C 35.1°F1.7°C 85% 2.0 mph WNW3.2 kmh WNW 3.0 mph4.8 kmh 29.95 in1014.2 mb 0.00 in0.0 mm 0.00 in0.0 mm 0.00 in0.0 mm
09:30 PM 39.1°F3.9°C 35.3°F1.8°C 86% 3.0 mph WNW4.8 kmh WNW 4.0 mph6.4 kmh 29.95 in1014.2 mb 0.00 in0.0 mm 0.00 in0.0 mm 0.00 in0.0 mm
09:45 PM 39.3°F4.1°C 35.5°F1.9°C 86% 4.0 mph WNW6.4 kmh WNW 6.0 mph9.7 kmh 29.95 in1014.2 mb 0.00 in0.0 mm 0.00 in0.0 mm 0.00 in0.0 mm
10:00 PM 38.8°F3.8°C 35.3°F1.8°C 87% 3.0 mph WNW4.8 kmh WNW 6.0 mph9.7 kmh 29.96 in1014.6 mb 0.00 in0.0 mm 0.00 in0.0 mm 0.00 in0.0 mm
10:15 PM 38.5°F3.6°C 35.0°F1.7°C 87% 3.0 mph WNW4.8 kmh WNW 3.0 mph4.8 kmh 29.96 in1014.6 mb 0.00 in0.0 mm 0.00 in0.0 mm 0.00 in0.0 mm
10:30 PM 37.9°F3.3°C 34.4°F1.3°C 87% 3.0 mph W4.8 kmh W 4.0 mph6.4 kmh 29.96 in1014.6 mb 0.00 in0.0 mm 0.00 in0.0 mm 0.00 in0.0 mm
10:45 PM 37.3°F2.9°C 34.4°F1.3°C 89% 3.0 mph W4.8 kmh W 4.0 mph6.4 kmh 29.96 in1014.6 mb 0.00 in0.0 mm 0.00 in0.0 mm 0.00 in0.0 mm
11:00 PM 37.5°F3.1°C 34.6°F1.4°C 89% 3.0 mph W4.8 kmh W 4.0 mph6.4 kmh 29.96 in1014.6 mb 0.00 in0.0 mm 0.00 in0.0 mm 0.00 in0.0 mm
11:15 PM 36.8°F2.7°C 34.1°F1.2°C 90% 3.0 mph W4.8 kmh W 4.0 mph6.4 kmh 29.96 in1014.6 mb 0.00 in0.0 mm 0.00 in0.0 mm 0.00 in0.0 mm
11:30 PM 36.3°F2.4°C 34.2°F1.2°C 92% 2.0 mph WNW3.2 kmh WNW 4.0 mph6.4 kmh 29.96 in1014.6 mb 0.00 in0.0 mm 0.00 in0.0 mm 0.00 in0.0 mm
11:45 PM 36.5°F2.5°C 34.1°F1.2°C 91% 3.0 mph NW4.8 kmh NW 4.0 mph6.4 kmh 29.96 in1014.6 mb 0.00 in0.0 mm 0.00 in0.0 mm 0.00 in0.0 mm